createdAt,value
2019-05-12T00:00:48.429Z,88.8334
2019-05-12T00:01:51.309Z,89.5293
2019-05-12T00:02:54.310Z,89.1096
2019-05-12T00:03:58.062Z,89.3782
2019-05-12T00:05:01.289Z,89.7627
2019-05-12T00:06:04.327Z,89.3797
2019-05-12T00:07:08.703Z,89.7902
2019-05-12T00:08:12.328Z,89.6712
2019-05-12T00:09:15.300Z,89.7505
2019-05-12T00:10:18.306Z,89.3324
2019-05-12T00:11:21.299Z,89.7551
2019-05-12T00:12:24.351Z,89.8085
2019-05-12T00:13:27.888Z,89.6254
2019-05-12T00:14:31.299Z,89.4896
2019-05-12T00:15:34.320Z,89.5796
2019-05-12T00:16:38.437Z,89.5171
2019-05-12T00:17:41.368Z,89.6223
2019-05-12T00:18:43.276Z,89.7627
2019-05-12T00:19:47.912Z,89.9779
2019-05-12T00:20:51.287Z,89.8604
2019-05-12T00:21:54.295Z,90.5562
2019-05-12T00:22:58.143Z,90.5867
2019-05-12T00:24:01.315Z,90.2937
2019-05-12T00:25:04.299Z,89.7047
2019-05-12T00:26:07.929Z,90.0481
2019-05-12T00:27:11.315Z,90.3761
2019-05-12T00:28:14.330Z,90.0969
2019-05-12T00:29:18.459Z,90.0893
2019-05-12T00:30:21.285Z,90.2449
2019-05-12T00:31:24.342Z,90.2754
2019-05-12T00:32:28.185Z,90.1167
2019-05-12T00:33:30.307Z,88.7480
2019-05-12T00:34:32.423Z,88.5863
2019-05-12T00:35:37.849Z,87.8355
2019-05-12T00:36:41.316Z,87.8309
2019-05-12T00:37:44.325Z,88.0934
2019-05-12T00:38:48.495Z,87.8126
2019-05-12T00:39:51.326Z,88.6931
2019-05-12T00:40:54.319Z,88.5969
2019-05-12T00:41:58.641Z,88.0385
2019-05-12T00:43:02.366Z,87.3014
2019-05-12T00:44:05.304Z,85.4887
2019-05-12T00:45:08.338Z,85.4826
2019-05-12T00:46:11.326Z,85.1316
2019-05-12T00:47:14.266Z,85.9007
2019-05-12T00:48:17.823Z,86.2211
2019-05-12T00:49:21.306Z,86.1692
2019-05-12T00:50:24.362Z,86.3294
2019-05-12T00:51:28.845Z,87.2877
2019-05-12T00:52:32.295Z,86.6178
2019-05-12T00:53:40.142Z,86.1570
2019-05-12T00:54:43.318Z,86.7887
2019-05-12T00:55:47.661Z,86.5324
2019-05-12T00:56:49.293Z,86.6545
2019-05-12T00:57:52.341Z,86.3676
2019-05-12T00:58:55.395Z,86.4530
2019-05-12T01:00:00.319Z,86.1708
2019-05-12T01:01:02.264Z,86.3523
2019-05-12T01:02:05.305Z,85.3788
2019-05-12T01:03:08.882Z,84.4587
2019-05-12T01:04:11.316Z,84.2985
2019-05-12T01:05:14.320Z,84.8920
2019-05-12T01:06:17.801Z,85.5573
2019-05-12T01:07:21.301Z,85.6718
2019-05-12T01:08:24.313Z,85.2033
2019-05-12T01:09:28.143Z,84.3305
2019-05-12T01:10:31.301Z,84.6037
2019-05-12T01:11:34.377Z,84.5304
2019-05-12T01:12:38.288Z,84.7150
2019-05-12T01:13:41.309Z,84.3061
2019-05-12T01:14:44.325Z,84.2847
2019-05-12T01:15:48.151Z,83.2410
2019-05-12T01:16:51.291Z,83.9536
2019-05-12T01:17:54.293Z,83.6027
2019-05-12T01:18:58.587Z,83.9170
2019-05-12T01:20:01.311Z,81.7487
2019-05-12T01:21:04.289Z,82.3896
2019-05-12T01:22:08.092Z,81.4130
2019-05-12T01:23:11.329Z,81.6052
2019-05-12T01:24:13.305Z,81.9730
2019-05-12T01:25:17.625Z,81.0025
2019-05-12T01:26:20.330Z,80.8270
2019-05-12T01:27:23.290Z,81.2085
2019-05-12T01:28:27.859Z,79.9298
2019-05-12T01:29:31.288Z,80.8148
2019-05-12T01:30:33.345Z,79.7528
2019-05-12T01:31:37.802Z,80.4562
2019-05-12T01:32:41.308Z,79.5590
2019-05-12T01:33:44.341Z,80.1511
2019-05-12T01:34:48.680Z,80.0641
2019-05-12T01:35:51.321Z,79.9313
2019-05-12T01:36:54.298Z,80.9751
2019-05-12T01:38:01.073Z,79.8398
2019-05-12T01:39:04.309Z,79.9115
2019-05-12T01:40:08.910Z,80.0732
2019-05-12T01:41:12.287Z,79.7528
2019-05-12T01:42:18.063Z,80.6684
2019-05-12T01:43:21.441Z,80.4288
2019-05-12T01:44:24.304Z,80.1450
2019-05-12T01:45:28.836Z,80.0351
2019-05-12T01:46:32.324Z,79.3545
2019-05-12T01:47:35.299Z,79.5544
2019-05-12T01:48:38.298Z,79.9985
2019-05-12T01:49:41.292Z,79.8016
2019-05-12T01:50:44.325Z,79.9542
2019-05-12T01:51:47.637Z,80.1953
2019-05-12T01:52:50.320Z,80.0183
2019-05-12T01:54:07.865Z,79.8428
2019-05-12T01:55:01.319Z,80.6180
2019-05-12T01:56:04.330Z,80.6302
2019-05-12T01:57:08.134Z,80.8148
2019-05-12T01:58:11.308Z,80.4944
2019-05-12T01:59:14.325Z,80.7004
2019-05-12T02:00:18.369Z,80.0916
2019-05-12T02:01:21.306Z,80.4242
2019-05-12T02:02:24.268Z,80.6989
2019-05-12T02:03:28.392Z,80.4440
2019-05-12T02:04:31.308Z,80.6409
2019-05-12T02:05:34.338Z,80.3571
2019-05-12T02:06:38.644Z,80.3845
2019-05-12T02:07:42.297Z,80.5722
2019-05-12T02:08:47.609Z,80.6897
2019-05-12T02:09:51.332Z,80.6165
2019-05-12T02:10:54.271Z,80.4425
2019-05-12T02:11:58.229Z,81.0986
2019-05-12T02:13:01.310Z,80.7218
2019-05-12T02:14:04.328Z,80.9873
2019-05-12T02:15:08.172Z,80.8515
2019-05-12T02:16:11.286Z,81.0880
2019-05-12T02:17:14.323Z,81.0666
2019-05-12T02:18:17.787Z,80.9888
2019-05-12T02:19:21.327Z,81.0422
2019-05-12T02:20:24.278Z,81.1109
2019-05-12T02:21:27.942Z,81.3001
2019-05-12T02:22:31.310Z,80.2197
2019-05-12T02:23:34.314Z,80.7034
2019-05-12T02:24:39.025Z,81.5137
2019-05-12T02:25:42.302Z,81.2406
2019-05-12T02:26:45.296Z,81.7472
2019-05-12T02:27:48.301Z,80.7004
2019-05-12T02:28:51.338Z,80.8515
2019-05-12T02:29:54.304Z,81.0330
2019-05-12T02:30:58.998Z,81.1810
2019-05-12T02:32:02.290Z,81.7121
2019-05-12T02:33:05.219Z,81.9486
2019-05-12T02:34:07.707Z,82.3392
2019-05-12T02:35:10.312Z,81.4740
2019-05-12T02:36:15.088Z,81.5732
2019-05-12T02:37:18.280Z,80.8774
2019-05-12T02:38:21.284Z,80.6317
2019-05-12T02:39:25.009Z,80.8423
2019-05-12T02:40:27.334Z,79.8169
2019-05-12T02:41:30.284Z,79.4171
2019-05-12T02:42:34.926Z,77.1191
2019-05-12T02:43:38.312Z,78.2925
2019-05-12T02:44:43.700Z,78.3246
2019-05-12T02:45:47.286Z,77.4273
2019-05-12T02:46:50.268Z,77.6410
2019-05-12T02:47:54.306Z,77.4319
2019-05-12T02:48:57.295Z,77.1695
2019-05-12T02:50:00.315Z,77.2534
2019-05-12T02:51:05.492Z,77.4258
2019-05-12T02:52:07.317Z,77.5326
2019-05-12T02:53:10.288Z,76.7895
2019-05-12T02:54:14.388Z,75.7183
2019-05-12T02:55:17.296Z,76.6400
2019-05-12T02:56:20.305Z,75.6329
2019-05-12T02:57:25.535Z,76.6766
2019-05-12T02:58:29.276Z,76.5927
2019-05-12T02:59:34.723Z,77.3678
2019-05-12T03:00:38.347Z,76.9558
2019-05-12T03:01:41.294Z,77.3480
2019-05-12T03:02:44.397Z,77.0047
2019-05-12T03:03:47.289Z,76.6842
2019-05-12T03:04:50.376Z,77.1923
2019-05-12T03:05:54.858Z,77.7966
2019-05-12T03:07:02.078Z,77.3205
2019-05-12T03:08:06.289Z,77.3251
2019-05-12T03:09:09.305Z,77.2168
2019-05-12T03:10:14.584Z,77.2015
2019-05-12T03:11:17.334Z,77.3663
2019-05-12T03:12:20.252Z,77.4533
2019-05-12T03:13:25.030Z,77.2442
2019-05-12T03:14:28.294Z,77.4685
2019-05-12T03:15:31.299Z,77.3663
2019-05-12T03:16:35.110Z,77.8622
2019-05-12T03:17:38.279Z,77.3022
2019-05-12T03:18:44.685Z,77.5082
2019-05-12T03:19:48.299Z,76.8002
2019-05-12T03:20:54.079Z,77.0687
2019-05-12T03:21:57.288Z,77.7432
2019-05-12T03:23:00.328Z,77.5174
2019-05-12T03:24:05.697Z,77.7890
2019-05-12T03:25:19.958Z,76.4889
2019-05-12T03:26:17.307Z,77.0291
2019-05-12T03:27:20.320Z,77.2610
2019-05-12T03:28:25.610Z,76.7361
2019-05-12T03:29:29.316Z,76.9360
2019-05-12T03:30:37.135Z,76.8902
2019-05-12T03:31:41.332Z,77.3175
2019-05-12T03:32:47.229Z,76.9650
2019-05-12T03:33:54.249Z,77.4578
2019-05-12T03:34:59.356Z,76.6674
2019-05-12T03:36:08.434Z,76.9268
2019-05-12T03:37:10.329Z,77.0550
2019-05-12T03:38:14.820Z,76.4324
2019-05-12T03:39:18.266Z,76.3363
2019-05-12T03:40:24.693Z,76.9879
2019-05-12T03:41:28.300Z,77.2122
2019-05-12T03:42:31.293Z,77.2351
2019-05-12T03:43:35.136Z,77.2747
2019-05-12T03:44:38.347Z,77.2656
2019-05-12T03:45:44.978Z,77.6181
2019-05-12T03:46:47.288Z,78.0041
2019-05-12T03:47:50.299Z,79.0799
2019-05-12T03:48:55.365Z,79.2065
2019-05-12T03:49:58.340Z,79.1394
2019-05-12T03:51:01.284Z,78.5061
2019-05-12T03:52:05.228Z,78.9044
2019-05-12T03:53:10.839Z,78.7915
2019-05-12T03:54:15.244Z,78.8174
2019-05-12T03:55:31.678Z,78.3612
2019-05-12T03:56:26.471Z,78.8556
2019-05-12T03:57:29.285Z,79.2172
2019-05-12T03:58:34.559Z,80.1648
2019-05-12T03:59:38.293Z,80.4974
2019-05-12T04:00:44.184Z,79.5193
2019-05-12T04:01:46.286Z,79.4675
2019-05-12T04:02:49.295Z,79.2035
2019-05-12T04:03:54.200Z,79.1608
2019-05-12T04:04:57.301Z,79.6139
2019-05-12T04:06:00.329Z,79.9405
2019-05-12T04:07:05.133Z,79.9527
2019-05-12T04:08:08.316Z,80.8408
2019-05-12T04:09:11.292Z,81.0513
2019-05-12T04:10:15.598Z,78.2696
2019-05-12T04:11:19.308Z,79.2248
2019-05-12T04:12:25.302Z,79.2981
2019-05-12T04:13:28.248Z,78.5519
2019-05-12T04:14:34.367Z,78.2773
2019-05-12T04:15:37.313Z,78.5245
2019-05-12T04:16:40.335Z,77.4533
2019-05-12T04:17:45.231Z,78.2177
2019-05-12T04:18:48.289Z,78.0591
2019-05-12T04:19:51.347Z,76.9192
2019-05-12T04:20:54.587Z,77.6364
2019-05-12T04:21:57.349Z,78.2696
2019-05-12T04:23:00.279Z,78.2330
2019-05-12T04:24:05.556Z,78.0545
2019-05-12T04:25:08.328Z,78.5016
2019-05-12T04:26:15.736Z,78.9960
2019-05-12T04:27:19.266Z,78.9517
2019-05-12T04:28:24.559Z,79.2569
2019-05-12T04:29:27.286Z,79.8306
2019-05-12T04:30:30.356Z,79.8856
2019-05-12T04:31:34.759Z,80.0916
2019-05-12T04:32:38.297Z,80.4013
2019-05-12T04:33:41.307Z,80.8774
2019-05-12T04:34:44.732Z,80.5539
2019-05-12T04:35:48.331Z,81.3306
2019-05-12T04:36:51.320Z,80.9415
2019-05-12T04:37:55.290Z,81.2116
2019-05-12T04:38:58.289Z,80.0732
2019-05-12T04:40:01.316Z,80.2197
2019-05-12T04:41:05.863Z,80.2274
2019-05-12T04:42:09.265Z,78.7808
2019-05-12T04:43:14.560Z,78.6816
2019-05-12T04:44:17.282Z,79.7848
2019-05-12T04:45:20.323Z,79.6750
2019-05-12T04:46:25.284Z,79.7986
2019-05-12T04:47:27.310Z,78.8144
2019-05-12T04:48:30.291Z,80.1511
2019-05-12T04:49:34.626Z,79.1653
2019-05-12T04:50:37.325Z,78.3642
2019-05-12T04:51:40.279Z,78.3230
2019-05-12T04:52:44.648Z,80.1083
2019-05-12T04:53:48.272Z,80.2731
2019-05-12T04:54:51.292Z,81.3779
2019-05-12T04:56:09.662Z,80.9705
2019-05-12T04:57:04.178Z,79.6872
2019-05-12T04:58:07.286Z,79.3530
2019-05-12T04:59:10.301Z,77.9934
2019-05-12T05:00:15.860Z,78.8449
2019-05-12T05:01:19.287Z,78.8403
2019-05-12T05:02:25.060Z,78.2422
2019-05-12T05:03:28.300Z,78.0407
2019-05-12T05:04:31.320Z,76.2875
2019-05-12T05:05:35.324Z,76.7758
2019-05-12T05:06:39.295Z,76.8048
2019-05-12T05:07:44.834Z,77.4365
2019-05-12T05:08:48.295Z,76.7208
2019-05-12T05:09:51.326Z,77.2076
2019-05-12T05:10:54.885Z,77.0886
2019-05-12T05:11:58.299Z,76.2966
2019-05-12T05:13:01.290Z,75.9075
2019-05-12T05:14:04.460Z,76.1501
2019-05-12T05:15:07.326Z,76.5240
2019-05-12T05:16:10.316Z,75.9442
2019-05-12T05:17:15.072Z,75.1705
2019-05-12T05:18:18.288Z,74.5632
2019-05-12T05:19:21.264Z,74.6609
2019-05-12T05:20:24.349Z,75.0744
2019-05-12T05:21:27.283Z,74.1024
2019-05-12T05:22:30.254Z,73.8323
2019-05-12T05:23:33.588Z,74.0734
2019-05-12T05:24:35.304Z,74.5739
2019-05-12T05:25:38.358Z,73.7865
2019-05-12T05:26:43.448Z,74.8348
2019-05-12T05:27:46.312Z,74.2336
2019-05-12T05:28:49.268Z,74.0826
2019-05-12T05:29:54.184Z,73.8216
2019-05-12T05:30:57.287Z,73.6248
2019-05-12T05:32:00.289Z,73.2586
2019-05-12T05:33:04.490Z,73.7408
2019-05-12T05:34:08.278Z,74.2031
2019-05-12T05:35:13.301Z,74.0612
2019-05-12T05:36:19.746Z,74.1070
2019-05-12T05:37:23.921Z,74.5144
2019-05-12T05:38:27.290Z,74.7066
2019-05-12T05:39:30.300Z,73.8125
2019-05-12T05:40:35.359Z,73.6065
2019-05-12T05:41:40.337Z,72.9900
2019-05-12T05:42:47.285Z,72.7840
2019-05-12T05:43:54.278Z,73.0983
2019-05-12T05:44:57.269Z,72.5231
2019-05-12T05:46:07.048Z,72.7199
2019-05-12T05:47:10.337Z,72.6589
2019-05-12T05:48:13.705Z,72.5093
2019-05-12T05:49:16.301Z,72.6467
2019-05-12T05:50:25.106Z,72.1660
2019-05-12T05:51:27.332Z,72.0546
2019-05-12T05:52:33.062Z,71.5557
2019-05-12T05:53:38.306Z,72.1462
2019-05-12T05:54:41.271Z,72.8344
2019-05-12T05:55:44.342Z,72.6833
2019-05-12T05:56:57.498Z,73.4615
2019-05-12T05:57:59.708Z,73.0266
2019-05-12T05:59:05.337Z,73.4020
2019-05-12T06:00:17.320Z,73.3410
2019-05-12T06:01:16.355Z,73.2357
2019-05-12T06:02:24.440Z,73.1182
2019-05-12T06:03:28.054Z,73.1121
2019-05-12T06:04:31.298Z,72.9122
2019-05-12T06:05:38.544Z,72.9992
2019-05-12T06:06:50.405Z,72.5231
2019-05-12T06:07:50.304Z,72.3064
2019-05-12T06:08:54.496Z,72.3812
2019-05-12T06:09:57.317Z,71.6106
2019-05-12T06:11:00.300Z,71.7708
2019-05-12T06:12:05.280Z,72.4041
2019-05-12T06:13:11.253Z,72.1691
2019-05-12T06:14:16.276Z,72.4819
2019-05-12T06:15:19.285Z,73.2906
2019-05-12T06:16:25.088Z,73.4157
2019-05-12T06:17:28.290Z,73.8781
2019-05-12T06:18:33.305Z,73.8323
2019-05-12T06:19:36.306Z,73.3379
2019-05-12T06:20:39.268Z,72.4620
2019-05-12T06:21:44.055Z,73.0571
2019-05-12T06:22:48.603Z,72.0089
2019-05-12T06:23:55.315Z,71.8166
2019-05-12T06:24:59.004Z,72.0867
2019-05-12T06:26:04.352Z,70.5714
2019-05-12T06:27:15.112Z,72.0729
2019-05-12T06:28:16.264Z,72.7291
2019-05-12T06:29:20.789Z,71.9646
2019-05-12T06:30:25.288Z,71.8715
2019-05-12T06:31:29.806Z,72.7092
2019-05-12T06:32:33.675Z,72.5643
2019-05-12T06:33:36.507Z,72.1981
2019-05-12T06:34:39.299Z,72.2118
2019-05-12T06:35:45.124Z,72.4269
2019-05-12T06:36:48.335Z,72.7687
2019-05-12T06:38:00.185Z,72.7871
2019-05-12T06:38:59.297Z,72.5231
2019-05-12T06:40:03.589Z,72.4620
2019-05-12T06:41:06.333Z,72.4224
2019-05-12T06:42:14.134Z,71.7128
2019-05-12T06:43:17.335Z,71.5572
2019-05-12T06:44:20.272Z,71.1818
2019-05-12T06:45:23.530Z,71.5053
2019-05-12T06:46:26.300Z,72.4636
2019-05-12T06:47:28.327Z,72.5307
2019-05-12T06:48:33.210Z,72.9427
2019-05-12T06:49:36.309Z,72.6925
2019-05-12T06:50:39.567Z,72.8756
2019-05-12T06:51:44.295Z,72.6101
2019-05-12T06:52:49.123Z,72.6909
2019-05-12T06:53:53.463Z,72.9198
2019-05-12T06:54:56.810Z,72.1187
2019-05-12T06:56:00.318Z,72.0226
2019-05-12T06:57:18.548Z,72.2210
2019-05-12T06:58:13.811Z,72.1111
2019-05-12T06:59:17.338Z,72.1965
2019-05-12T07:00:22.378Z,71.6106
2019-05-12T07:01:28.315Z,71.0704
2019-05-12T07:02:37.188Z,70.9255
2019-05-12T07:03:39.281Z,71.1955
2019-05-12T07:04:47.498Z,71.9219
2019-05-12T07:05:50.270Z,71.8364
2019-05-12T07:06:56.086Z,71.5023
2019-05-12T07:08:04.000Z,71.3100
2019-05-12T07:09:09.864Z,70.9789
2019-05-12T07:10:35.172Z,70.1976
2019-05-12T07:11:24.292Z,69.8482
2019-05-12T07:12:32.781Z,70.3761
2019-05-12T07:13:34.362Z,70.5714
2019-05-12T07:14:37.328Z,70.6737
2019-05-12T07:15:40.730Z,71.7388
2019-05-12T07:16:44.296Z,72.4758
2019-05-12T07:17:49.738Z,72.1965
2019-05-12T07:18:54.176Z,71.9951
2019-05-12T07:19:58.363Z,71.8181
2019-05-12T07:21:01.334Z,70.7271
2019-05-12T07:22:18.844Z,71.1315
2019-05-12T07:23:14.261Z,71.2856
2019-05-12T07:24:17.330Z,70.8278
2019-05-12T07:25:22.933Z,70.9743
2019-05-12T07:26:28.308Z,70.9667
2019-05-12T07:27:36.814Z,70.7835
2019-05-12T07:28:40.471Z,70.9987
2019-05-12T07:29:43.667Z,70.0130
2019-05-12T07:30:46.294Z,70.0191
2019-05-12T07:31:49.294Z,70.0542
2019-05-12T07:32:59.379Z,71.1574
2019-05-12T07:34:00.285Z,71.4733
2019-05-12T07:35:03.913Z,70.3853
2019-05-12T07:36:07.270Z,69.3690
2019-05-12T07:37:10.283Z,70.2235
2019-05-12T07:38:20.970Z,70.8934
2019-05-12T07:39:21.299Z,71.0399
2019-05-12T07:40:29.719Z,69.5796
2019-05-12T07:41:34.201Z,70.7744
2019-05-12T07:42:39.536Z,69.4133
2019-05-12T07:43:44.357Z,69.4606
2019-05-12T07:44:47.322Z,70.0053
2019-05-12T07:45:53.979Z,70.5852
2019-05-12T07:46:58.316Z,69.6880
2019-05-12T07:48:08.144Z,69.5247
2019-05-12T07:49:09.304Z,69.6345
2019-05-12T07:50:16.192Z,70.3990
2019-05-12T07:51:20.306Z,69.7520
2019-05-12T07:52:24.235Z,69.4743
2019-05-12T07:53:27.319Z,69.2958
2019-05-12T07:54:35.344Z,69.3507
2019-05-12T07:55:39.856Z,69.3736
2019-05-12T07:56:46.300Z,69.5384
2019-05-12T07:57:55.368Z,69.7612
2019-05-12T07:58:57.344Z,67.8676
2019-05-12T08:00:00.294Z,67.4678
2019-05-12T08:01:07.662Z,67.7974
2019-05-12T08:02:10.280Z,67.8111
2019-05-12T08:03:19.005Z,67.7165
2019-05-12T08:04:21.303Z,67.3777
2019-05-12T08:05:24.326Z,67.2770
2019-05-12T08:06:31.870Z,68.1361
2019-05-12T08:07:35.307Z,67.2129
2019-05-12T08:08:41.884Z,67.6478
2019-05-12T08:09:46.326Z,67.5105
2019-05-12T08:10:51.503Z,67.5319
2019-05-12T08:11:56.342Z,66.5583
2019-05-12T08:13:00.883Z,66.8696
2019-05-12T08:14:04.288Z,64.2328
2019-05-12T08:15:09.596Z,63.7293
2019-05-12T08:16:14.171Z,65.4322
2019-05-12T08:17:19.658Z,65.4230
2019-05-12T08:18:24.616Z,65.2125
2019-05-12T08:19:28.575Z,66.4195
2019-05-12T08:20:31.305Z,65.6825
2019-05-12T08:21:34.757Z,66.4836
2019-05-12T08:22:43.609Z,64.0909
2019-05-12T08:23:47.308Z,65.6779
2019-05-12T08:24:50.312Z,66.5034
2019-05-12T08:25:54.025Z,64.8875
2019-05-12T08:27:03.332Z,66.0365
2019-05-12T08:28:14.968Z,65.2018
2019-05-12T08:29:16.889Z,65.0980
2019-05-12T08:30:21.271Z,67.2129
2019-05-12T08:31:31.894Z,64.9653
2019-05-12T08:32:33.869Z,64.9653
2019-05-12T08:33:37.291Z,64.4389
2019-05-12T08:34:40.311Z,63.7705
2019-05-12T08:35:43.902Z,61.0925
2019-05-12T08:36:53.276Z,63.0243
2019-05-12T08:37:55.307Z,65.3345
2019-05-12T08:38:58.316Z,64.1718
2019-05-12T08:40:04.366Z,62.8122
2019-05-12T08:41:09.285Z,62.9404
2019-05-12T08:42:14.377Z,62.1805
2019-05-12T08:43:17.291Z,62.1637
2019-05-12T08:44:24.842Z,62.7344
2019-05-12T08:45:34.002Z,60.7889
2019-05-12T08:46:36.292Z,58.4237
2019-05-12T08:47:39.365Z,58.6053
2019-05-12T08:48:44.390Z,58.2223
2019-05-12T08:49:55.156Z,58.0987
2019-05-12T08:50:56.315Z,58.3444
2019-05-12T08:52:00.360Z,56.1440
2019-05-12T08:53:04.704Z,56.8170
2019-05-12T08:54:08.501Z,58.2986
2019-05-12T08:55:13.856Z,56.8353
2019-05-12T08:56:22.886Z,57.5036
2019-05-12T08:57:34.827Z,57.4350
2019-05-12T08:58:47.301Z,59.7498
2019-05-12T08:59:44.119Z,59.1959
2019-05-12T09:00:50.307Z,59.2416
2019-05-12T09:01:54.297Z,59.5529
2019-05-12T09:02:57.327Z,59.3835
2019-05-12T09:04:05.423Z,59.7833
2019-05-12T09:05:08.299Z,60.1999
2019-05-12T09:06:17.919Z,58.0285
2019-05-12T09:07:19.304Z,58.4283
2019-05-12T09:08:24.218Z,58.5473
2019-05-12T09:09:27.271Z,57.6028
2019-05-12T09:10:30.326Z,57.2931
2019-05-12T09:11:33.688Z,56.7102
2019-05-12T09:12:37.303Z,55.9335
2019-05-12T09:13:40.340Z,55.7229
2019-05-12T09:14:46.161Z,56.1425
2019-05-12T09:15:49.343Z,57.7859
2019-05-12T09:16:53.670Z,58.7259
2019-05-12T09:18:00.370Z,58.8403
2019-05-12T09:19:04.883Z,57.5769
2019-05-12T09:20:08.656Z,58.2910
2019-05-12T09:21:14.054Z,56.1395
2019-05-12T09:22:20.836Z,58.7335
2019-05-12T09:23:24.350Z,57.2549
2019-05-12T09:24:27.551Z,54.7616
2019-05-12T09:25:30.357Z,55.5566
2019-05-12T09:26:34.438Z,54.9767
2019-05-12T09:27:39.452Z,54.9081
2019-05-12T09:28:50.086Z,52.9442
2019-05-12T09:29:54.014Z,49.2027
2019-05-12T09:30:57.403Z,50.4845
2019-05-12T09:32:05.467Z,52.4208
2019-05-12T09:33:08.331Z,55.1919
2019-05-12T09:34:13.482Z,54.6334
2019-05-12T09:35:19.307Z,55.1553
2019-05-12T09:36:24.278Z,55.4208
2019-05-12T09:37:30.909Z,54.5815
2019-05-12T09:38:35.331Z,54.0017
2019-05-12T09:39:42.454Z,54.2519
2019-05-12T09:40:46.329Z,54.8028
2019-05-12T09:41:52.583Z,54.6136
2019-05-12T09:43:00.250Z,55.3185
2019-05-12T09:44:05.311Z,53.3455
2019-05-12T09:45:10.504Z,54.5602
2019-05-12T09:46:14.518Z,55.7763
2019-05-12T09:47:22.948Z,56.3165
2019-05-12T09:48:25.338Z,56.7193
2019-05-12T09:49:38.451Z,56.0021
2019-05-12T09:50:36.310Z,56.0616
2019-05-12T09:51:45.649Z,55.2880
2019-05-12T09:52:50.186Z,55.9915
2019-05-12T09:53:55.562Z,55.0088
2019-05-12T09:54:59.307Z,54.5449
2019-05-12T09:56:04.349Z,53.5073
2019-05-12T09:57:07.363Z,52.9335
2019-05-12T09:58:13.976Z,54.6334
2019-05-12T09:59:22.568Z,53.4112
2019-05-12T10:00:25.334Z,52.0882
2019-05-12T10:01:29.267Z,53.2402
2019-05-12T10:02:36.336Z,51.6655
2019-05-12T10:03:40.154Z,52.9397
2019-05-12T10:04:43.765Z,51.9188
2019-05-12T10:05:46.311Z,51.1437
2019-05-12T10:06:49.355Z,53.8903
2019-05-12T10:07:53.623Z,53.9223
2019-05-12T10:08:56.308Z,52.2652
2019-05-12T10:09:59.173Z,54.0703
2019-05-12T10:11:03.723Z,50.9926
2019-05-12T10:12:07.321Z,51.6472
2019-05-12T10:13:10.305Z,50.4753
2019-05-12T10:14:13.975Z,51.3558
2019-05-12T10:15:18.710Z,50.8476
2019-05-12T10:16:25.304Z,50.6966
2019-05-12T10:17:30.135Z,52.9747
2019-05-12T10:18:33.646Z,53.1319
2019-05-12T10:19:37.314Z,52.0974
2019-05-12T10:20:40.283Z,51.8410
2019-05-12T10:21:44.013Z,51.6075
2019-05-12T10:22:47.328Z,52.2164
2019-05-12T10:23:51.517Z,52.5948
2019-05-12T10:24:58.701Z,52.4758
2019-05-12T10:26:09.471Z,51.0613
2019-05-12T10:27:10.317Z,51.3634
2019-05-12T10:28:15.898Z,50.0130
2019-05-12T10:29:20.804Z,49.0242
2019-05-12T10:30:24.289Z,49.5506
2019-05-12T10:31:29.529Z,50.5821
2019-05-12T10:32:35.315Z,49.6254
2019-05-12T10:33:38.318Z,50.3990
2019-05-12T10:34:41.290Z,51.4839
2019-05-12T10:35:44.315Z,50.6325
2019-05-12T10:36:49.220Z,51.4107
2019-05-12T10:37:53.745Z,52.3613
2019-05-12T10:38:57.326Z,51.2871
2019-05-12T10:40:00.340Z,51.3222
2019-05-12T10:41:04.319Z,51.3588
2019-05-12T10:42:07.292Z,51.9356
2019-05-12T10:43:10.363Z,51.7983
2019-05-12T10:44:13.931Z,52.0745
2019-05-12T10:45:20.605Z,51.1360
2019-05-12T10:46:28.627Z,53.1273
2019-05-12T10:47:34.262Z,51.9265
2019-05-12T10:48:38.357Z,51.7082
2019-05-12T10:49:41.310Z,51.4382
2019-05-12T10:50:44.248Z,51.9554
2019-05-12T10:51:47.778Z,51.6014
2019-05-12T10:52:53.519Z,51.3878
2019-05-12T10:54:01.965Z,51.4794
2019-05-12T10:55:04.515Z,52.5277
2019-05-12T10:56:06.288Z,52.7138
2019-05-12T10:57:09.363Z,52.4620
2019-05-12T10:58:14.346Z,52.3262
2019-05-12T10:59:29.167Z,52.3125
2019-05-12T11:00:26.854Z,52.8008
2019-05-12T11:01:30.292Z,50.8843
2019-05-12T11:02:33.680Z,51.0063
2019-05-12T11:03:37.311Z,51.3542
2019-05-12T11:04:41.281Z,52.2072
2019-05-12T11:05:46.354Z,50.9255
2019-05-12T11:06:49.328Z,51.0765
2019-05-12T11:07:53.978Z,51.1025
2019-05-12T11:08:57.334Z,51.0704
2019-05-12T11:10:03.536Z,48.3513
2019-05-12T11:11:08.325Z,49.2683
2019-05-12T11:12:13.663Z,50.2983
2019-05-12T11:13:18.109Z,47.5090
2019-05-12T11:14:26.320Z,48.2200
2019-05-12T11:15:29.297Z,50.1015
2019-05-12T11:16:34.453Z,49.1539
2019-05-12T11:17:40.174Z,50.5959
2019-05-12T11:18:43.731Z,47.7012
2019-05-12T11:19:51.335Z,48.0034
2019-05-12T11:20:55.306Z,48.1880
2019-05-12T11:21:58.280Z,46.6941
2019-05-12T11:23:03.298Z,46.6438
2019-05-12T11:24:07.297Z,46.6819
2019-05-12T11:25:10.389Z,47.5273
2019-05-12T11:26:14.184Z,46.8910
2019-05-12T11:27:17.332Z,46.9551
2019-05-12T11:28:20.326Z,47.3030
2019-05-12T11:29:23.641Z,46.4805
2019-05-12T11:30:27.339Z,47.3732
2019-05-12T11:31:30.281Z,49.4957
2019-05-12T11:32:34.928Z,48.4855
2019-05-12T11:33:43.471Z,49.2027
2019-05-12T11:34:47.308Z,49.1447
2019-05-12T11:35:50.343Z,50.3807
2019-05-12T11:36:54.532Z,48.9418
2019-05-12T11:37:56.279Z,49.1081
2019-05-12T11:38:59.298Z,48.3299
2019-05-12T11:40:04.272Z,48.5573
2019-05-12T11:41:09.908Z,49.2409
2019-05-12T11:42:15.286Z,48.7999
2019-05-12T11:43:18.318Z,47.8126
2019-05-12T11:44:23.177Z,49.9535
2019-05-12T11:45:26.371Z,50.1091
2019-05-12T11:46:29.265Z,50.1747
2019-05-12T11:47:35.572Z,50.0908
2019-05-12T11:48:45.184Z,50.9300
2019-05-12T11:49:48.281Z,50.8751
2019-05-12T11:50:51.472Z,50.7729
2019-05-12T11:51:54.495Z,51.1131
2019-05-12T11:52:57.300Z,50.7225
2019-05-12T11:54:03.414Z,50.6996
2019-05-12T11:55:08.295Z,51.4290
2019-05-12T11:56:10.332Z,49.7398
2019-05-12T11:57:13.310Z,49.7261
2019-05-12T11:58:16.338Z,51.0719
2019-05-12T11:59:19.305Z,49.3629
2019-05-12T12:00:24.197Z,49.4331
2019-05-12T12:01:27.335Z,46.3096
2019-05-12T12:02:30.630Z,46.8101
2019-05-12T12:03:34.290Z,45.0843
2019-05-12T12:04:37.315Z,45.4917
2019-05-12T12:05:40.285Z,46.3478
2019-05-12T12:06:43.811Z,44.5609
2019-05-12T12:07:51.379Z,43.3677
2019-05-12T12:08:54.298Z,44.4205
2019-05-12T12:09:59.444Z,43.5828
2019-05-12T12:11:03.975Z,41.7746
2019-05-12T12:12:07.539Z,41.9898
2019-05-12T12:13:10.281Z,43.4501
2019-05-12T12:14:14.269Z,42.5528
2019-05-12T12:15:20.472Z,41.1337
2019-05-12T12:16:25.334Z,41.7548
2019-05-12T12:17:31.017Z,44.8829
2019-05-12T12:18:35.312Z,38.8388
2019-05-12T12:19:43.851Z,41.8143
2019-05-12T12:20:46.322Z,40.1389
2019-05-12T12:21:50.155Z,39.9847
2019-05-12T12:22:54.259Z,42.0081
2019-05-12T12:23:57.320Z,40.8728
2019-05-12T12:25:03.186Z,39.9557
2019-05-12T12:26:08.324Z,41.3611
2019-05-12T12:27:11.316Z,45.2293
2019-05-12T12:28:14.366Z,46.0578
2019-05-12T12:29:17.289Z,46.6819
2019-05-12T12:30:20.315Z,47.2175
2019-05-12T12:31:23.832Z,44.8554
2019-05-12T12:32:27.343Z,46.0258
2019-05-12T12:33:31.130Z,46.3935
2019-05-12T12:34:38.320Z,46.5156
2019-05-12T12:35:41.372Z,45.5314
2019-05-12T12:36:44.260Z,44.6815
2019-05-12T12:37:47.343Z,46.9337
2019-05-12T12:38:50.296Z,45.6962
2019-05-12T12:39:53.662Z,46.8421
2019-05-12T12:40:57.283Z,46.1189
2019-05-12T12:42:00.897Z,48.3024
2019-05-12T12:43:04.333Z,47.3548
2019-05-12T12:44:07.273Z,46.5385
2019-05-12T12:45:10.346Z,45.4505
2019-05-12T12:46:18.178Z,44.8508
2019-05-12T12:47:23.691Z,41.2024
2019-05-12T12:48:29.741Z,39.4064
2019-05-12T12:49:33.947Z,42.0218
2019-05-12T12:50:37.283Z,42.5620
2019-05-12T12:51:40.310Z,43.1708
2019-05-12T12:52:44.855Z,46.4714
2019-05-12T12:53:51.358Z,44.5350
2019-05-12T12:54:54.407Z,46.0227
2019-05-12T12:55:58.672Z,46.2181
2019-05-12T12:57:06.322Z,45.6046